createdAt,value
2018-12-10T00:01:08.584Z,27.97
2018-12-10T00:03:35.721Z,27.97
2018-12-10T00:06:02.450Z,33.17
2018-12-10T00:08:29.148Z,22.23
2018-12-10T00:10:55.925Z,22.87
2018-12-10T00:13:22.649Z,25.97
2018-12-10T00:15:49.351Z,23.70
2018-12-10T00:18:16.644Z,22.93
2018-12-10T00:20:43.475Z,23.90
2018-12-10T00:23:10.183Z,26.03
2018-12-10T00:25:36.934Z,25.03
2018-12-10T00:28:03.775Z,25.63
2018-12-10T00:30:30.479Z,28.57
2018-12-10T00:32:57.249Z,31.90
2018-12-10T00:35:23.969Z,30.17
2018-12-10T00:37:50.700Z,25.10
2018-12-10T00:40:18.171Z,28.47
2018-12-10T00:42:44.866Z,28.23
2018-12-10T00:45:11.588Z,27.33
2018-12-10T00:47:38.365Z,30.03
2018-12-10T00:50:05.077Z,25.60
2018-12-10T00:52:31.781Z,28.73
2018-12-10T00:54:58.538Z,25.77
2018-12-10T00:57:25.236Z,26.57
2018-12-10T00:59:51.943Z,29.57
2018-12-10T01:02:18.696Z,25.77
2018-12-10T01:04:45.429Z,25.50
2018-12-10T01:07:12.178Z,25.07
2018-12-10T01:09:38.922Z,20.47
2018-12-10T01:12:05.867Z,20.20
2018-12-10T01:14:32.586Z,22.07
2018-12-10T01:16:59.412Z,22.93
2018-12-10T01:19:26.222Z,22.43
2018-12-10T01:21:52.929Z,23.07
2018-12-10T01:24:19.698Z,20.63
2018-12-10T01:26:46.410Z,23.13
2018-12-10T01:29:13.396Z,18.73
2018-12-10T01:31:40.162Z,20.43
2018-12-10T01:34:06.861Z,25.43
2018-12-10T01:36:33.575Z,20.30
2018-12-10T01:39:00.343Z,22.30
2018-12-10T01:41:27.071Z,20.30
2018-12-10T01:43:53.758Z,22.87
2018-12-10T01:46:20.556Z,15.13
2018-12-10T01:48:47.251Z,15.63
2018-12-10T01:51:14.207Z,14.57
2018-12-10T01:53:40.948Z,11.17
2018-12-10T01:56:07.648Z,5.97
2018-12-10T01:58:34.474Z,6.67
2018-12-10T02:01:01.287Z,9.60
2018-12-10T02:03:27.994Z,6.77
2018-12-10T02:05:54.693Z,5.43
2018-12-10T02:08:21.438Z,5.50
2018-12-10T02:10:48.155Z,5.37
2018-12-10T02:13:15.025Z,5.00
2018-12-10T02:15:41.880Z,4.63
2018-12-10T02:18:08.585Z,4.97
2018-12-10T02:20:35.275Z,5.70
2018-12-10T02:23:02.020Z,3.50
2018-12-10T02:25:28.830Z,6.57
2018-12-10T02:27:55.537Z,5.87
2018-12-10T02:30:22.289Z,2.50
2018-12-10T02:32:49.040Z,3.83
2018-12-10T02:35:16.022Z,4.03
2018-12-10T02:37:42.803Z,9.37
2018-12-10T02:40:09.615Z,7.87
2018-12-10T02:42:36.320Z,3.97
2018-12-10T02:45:03.223Z,2.77
2018-12-10T02:47:29.925Z,3.70
2018-12-10T02:49:56.747Z,4.27
2018-12-10T02:52:23.495Z,4.00
2018-12-10T02:54:50.227Z,4.67
2018-12-10T02:57:17.201Z,4.37
2018-12-10T02:59:44.022Z,6.33
2018-12-10T03:02:10.727Z,6.07
2018-12-10T03:04:37.445Z,3.40
2018-12-10T03:07:04.346Z,4.03
2018-12-10T03:09:31.049Z,3.40
2018-12-10T03:11:57.748Z,5.97
2018-12-10T03:14:24.505Z,4.20
2018-12-10T03:16:51.243Z,3.97
2018-12-10T03:19:17.942Z,1.93
2018-12-10T03:21:44.692Z,1.97
2018-12-10T03:24:11.399Z,1.50
2018-12-10T03:26:38.099Z,2.53
2018-12-10T03:29:04.879Z,5.03
2018-12-10T03:31:31.574Z,5.67
2018-12-10T03:33:58.283Z,5.40
2018-12-10T03:36:25.027Z,3.23
2018-12-10T03:38:51.719Z,4.20
2018-12-10T03:41:18.423Z,2.33
2018-12-10T03:43:45.195Z,5.57
2018-12-10T03:46:11.915Z,3.87
2018-12-10T03:48:38.665Z,3.13
2018-12-10T03:51:05.405Z,4.17
2018-12-10T03:53:32.155Z,3.17
2018-12-10T03:55:58.875Z,4.23
2018-12-10T03:58:25.660Z,3.33
2018-12-10T04:00:52.355Z,4.93
2018-12-10T04:03:19.080Z,4.10
2018-12-10T04:05:45.865Z,9.30
2018-12-10T04:08:12.585Z,7.77
2018-12-10T04:10:39.302Z,10.77
2018-12-10T04:13:06.012Z,7.47
2018-12-10T04:15:33.032Z,10.63
2018-12-10T04:17:59.782Z,16.03
2018-12-10T04:20:26.786Z,18.37
2018-12-10T04:22:53.512Z,19.40
2018-12-10T04:25:20.272Z,22.27
2018-12-10T04:27:47.081Z,13.20
2018-12-10T04:30:13.781Z,14.17
2018-12-10T04:32:40.681Z,6.33
2018-12-10T04:35:07.387Z,8.77
2018-12-10T04:37:34.090Z,4.07
2018-12-10T04:40:00.834Z,3.97
2018-12-10T04:42:27.552Z,4.13
2018-12-10T04:44:54.250Z,5.10
2018-12-10T04:47:21.126Z,2.53
2018-12-10T04:49:47.821Z,5.47
2018-12-10T04:52:14.526Z,3.97
2018-12-10T04:54:41.268Z,3.73
2018-12-10T04:57:07.975Z,5.73
2018-12-10T04:59:35.178Z,3.93
2018-12-10T05:02:01.984Z,4.57
2018-12-10T05:04:28.813Z,4.97
2018-12-10T05:06:55.513Z,5.40
2018-12-10T05:09:22.283Z,4.47
2018-12-10T05:11:49.078Z,6.00
2018-12-10T05:14:15.787Z,6.97
2018-12-10T05:16:42.541Z,6.77
2018-12-10T05:19:09.405Z,6.60
2018-12-10T05:21:36.267Z,5.70
2018-12-10T05:24:03.031Z,10.07
2018-12-10T05:26:29.747Z,11.43
2018-12-10T05:28:56.689Z,6.07
2018-12-10T05:31:23.499Z,5.57
2018-12-10T05:33:50.219Z,8.50
2018-12-10T05:36:16.944Z,7.77
2018-12-10T05:38:43.813Z,8.27
2018-12-10T05:41:10.528Z,8.90
2018-12-10T05:43:37.231Z,6.83
2018-12-10T05:46:03.974Z,6.40
2018-12-10T05:48:30.781Z,11.43
2018-12-10T05:50:58.704Z,11.27
2018-12-10T05:53:29.773Z,9.97
2018-12-10T05:55:56.491Z,14.30
2018-12-10T05:58:23.221Z,16.50
2018-12-10T06:00:50.091Z,13.53
2018-12-10T06:03:16.806Z,10.67
2018-12-10T06:05:43.528Z,11.20
2018-12-10T06:08:10.307Z,9.20
2018-12-10T06:10:37.021Z,11.83
2018-12-10T06:13:03.751Z,12.10
2018-12-10T06:15:30.522Z,10.27
2018-12-10T06:17:57.234Z,10.60
2018-12-10T06:20:23.973Z,10.77
2018-12-10T06:22:50.780Z,13.60
2018-12-10T06:25:17.486Z,14.20
2018-12-10T06:27:44.192Z,9.67
2018-12-10T06:30:10.960Z,18.83
2018-12-10T06:32:37.688Z,5.07
2018-12-10T06:35:04.421Z,5.23
2018-12-10T06:37:37.542Z,5.73
2018-12-10T06:39:59.918Z,5.20
2018-12-10T06:42:26.631Z,6.47
2018-12-10T06:44:53.363Z,6.70
2018-12-10T06:47:20.069Z,10.63
2018-12-10T06:49:46.872Z,12.43
2018-12-10T06:52:13.623Z,8.97
2018-12-10T06:54:40.348Z,14.50
2018-12-10T06:57:07.077Z,22.27
2018-12-10T06:59:33.853Z,9.53
2018-12-10T07:02:00.575Z,15.37
2018-12-10T07:04:27.286Z,4.33
2018-12-10T07:06:54.117Z,8.33
2018-12-10T07:09:21.008Z,5.97
2018-12-10T07:11:47.718Z,8.50
2018-12-10T07:14:14.487Z,7.83
2018-12-10T07:16:41.346Z,14.57
2018-12-10T07:19:08.056Z,13.83
2018-12-10T07:21:34.824Z,12.87
2018-12-10T07:24:01.543Z,12.73
2018-12-10T07:26:28.259Z,16.40
2018-12-10T07:28:55.030Z,20.40
2018-12-10T07:31:21.748Z,19.07
2018-12-10T07:33:48.461Z,14.70
2018-12-10T07:36:15.263Z,19.07
2018-12-10T07:38:42.311Z,16.07
2018-12-10T07:41:09.038Z,13.10
2018-12-10T07:43:35.811Z,12.60
2018-12-10T07:46:02.642Z,15.50
2018-12-10T07:48:29.368Z,15.50
2018-12-10T07:50:56.141Z,21.70
2018-12-10T07:53:22.968Z,15.70
2018-12-10T07:55:50.925Z,14.87
2018-12-10T07:58:18.698Z,17.47
2018-12-10T08:00:45.410Z,14.10
2018-12-10T08:03:12.132Z,14.80
2018-12-10T08:05:38.900Z,13.63
2018-12-10T08:08:05.619Z,10.07
2018-12-10T08:10:32.317Z,9.67
2018-12-10T08:12:59.108Z,5.20
2018-12-10T08:15:25.870Z,8.30
2018-12-10T08:17:52.579Z,11.93
2018-12-10T08:20:19.455Z,9.60
2018-12-10T08:22:46.183Z,9.23
2018-12-10T08:25:12.893Z,10.23
2018-12-10T08:27:39.665Z,8.17
2018-12-10T08:30:06.391Z,10.93
2018-12-10T08:32:33.159Z,6.90
2018-12-10T08:34:59.915Z,8.70
2018-12-10T08:37:26.627Z,9.63
2018-12-10T08:39:53.583Z,6.13
2018-12-10T08:42:20.346Z,14.37
2018-12-10T08:44:47.178Z,14.17
2018-12-10T08:47:16.157Z,14.20
2018-12-10T08:49:42.791Z,21.60
2018-12-10T08:52:09.528Z,20.87
2018-12-10T08:54:36.259Z,14.43
2018-12-10T08:57:03.110Z,18.73
2018-12-10T08:59:30.071Z,19.60
2018-12-10T09:01:56.806Z,15.37
2018-12-10T09:04:23.557Z,19.17
2018-12-10T09:06:50.277Z,14.53
2018-12-10T09:09:16.982Z,18.53
2018-12-10T09:11:43.926Z,22.70
2018-12-10T09:14:10.658Z,22.17
2018-12-10T09:16:37.471Z,25.03
2018-12-10T09:19:05.136Z,24.60
2018-12-10T09:21:31.864Z,22.97
2018-12-10T09:23:58.578Z,22.53
2018-12-10T09:26:25.480Z,18.17
2018-12-10T09:28:52.204Z,14.47
2018-12-10T09:31:18.930Z,17.27
2018-12-10T09:33:45.812Z,16.53
2018-12-10T09:36:12.620Z,13.73
2018-12-10T09:38:39.341Z,16.30
2018-12-10T09:41:06.099Z,17.40
2018-12-10T09:43:32.870Z,17.63
2018-12-10T09:45:59.629Z,17.87
2018-12-10T09:48:26.531Z,10.73
2018-12-10T09:50:53.309Z,15.77
2018-12-10T09:53:20.115Z,14.00
2018-12-10T09:55:47.027Z,13.87
2018-12-10T09:58:13.887Z,16.67
2018-12-10T10:00:40.640Z,14.10
2018-12-10T10:03:07.378Z,6.17
2018-12-10T10:05:34.181Z,8.37
2018-12-10T10:08:00.908Z,7.97
2018-12-10T10:10:27.739Z,10.90
2018-12-10T10:12:54.482Z,23.33
2018-12-10T10:15:21.882Z,16.53
2018-12-10T10:17:48.625Z,15.70
2018-12-10T10:20:15.341Z,13.90
2018-12-10T10:22:42.061Z,11.83
2018-12-10T10:25:08.817Z,8.90
2018-12-10T10:27:35.553Z,13.77
2018-12-10T10:30:02.316Z,21.70
2018-12-10T10:32:29.265Z,15.43
2018-12-10T10:34:55.987Z,8.17
2018-12-10T10:37:22.714Z,18.07
2018-12-10T10:39:49.499Z,14.67
2018-12-10T10:42:16.215Z,15.73
2018-12-10T10:44:42.995Z,18.00
2018-12-10T10:47:09.763Z,24.77
2018-12-10T10:49:36.602Z,26.47
2018-12-10T10:52:03.332Z,27.55
2018-12-10T10:54:30.120Z,25.63
2018-12-10T10:56:56.959Z,33.13
2018-12-10T10:59:23.703Z,29.67
2018-12-10T11:01:54.789Z,27.93
2018-12-10T11:04:37.720Z,20.40
2018-12-10T11:06:59.343Z,20.27
2018-12-10T11:09:26.070Z,16.57
2018-12-10T11:11:52.911Z,23.90
2018-12-10T11:14:20.470Z,21.30
2018-12-10T11:16:47.186Z,22.40
2018-12-10T11:19:13.887Z,21.83
2018-12-10T11:21:40.754Z,22.20
2018-12-10T11:24:07.545Z,14.67
2018-12-10T11:26:34.262Z,14.03
2018-12-10T11:29:01.224Z,21.97
2018-12-10T11:31:27.925Z,22.03
2018-12-10T11:33:54.674Z,14.43
2018-12-10T11:36:25.755Z,15.07
2018-12-10T11:38:57.949Z,11.93
2018-12-10T11:41:21.339Z,12.60
2018-12-10T11:43:48.059Z,14.33
2018-12-10T11:46:14.775Z,11.97
2018-12-10T11:48:41.686Z,16.37
2018-12-10T11:51:08.391Z,11.90
2018-12-10T11:53:35.113Z,18.30
2018-12-10T11:56:01.874Z,10.47
2018-12-10T11:58:28.777Z,10.93
2018-12-10T12:00:55.512Z,13.00
2018-12-10T12:03:22.272Z,14.43
2018-12-10T12:05:48.991Z,11.67
2018-12-10T12:08:15.695Z,14.17
2018-12-10T12:10:42.460Z,14.70
2018-12-10T12:13:09.377Z,16.73
2018-12-10T12:15:36.195Z,15.45
2018-12-10T12:18:03.047Z,12.98
2018-12-10T12:20:29.780Z,13.03
2018-12-10T12:22:56.485Z,14.07
2018-12-10T12:25:23.261Z,13.73
2018-12-10T12:27:49.989Z,14.10
2018-12-10T12:30:16.711Z,9.83
2018-12-10T12:32:43.457Z,16.43
2018-12-10T12:35:10.291Z,14.50
2018-12-10T12:37:37.155Z,16.32
2018-12-10T12:40:04.137Z,18.77
2018-12-10T12:42:30.853Z,19.80
2018-12-10T12:44:57.562Z,19.40
2018-12-10T12:47:24.405Z,17.37
2018-12-10T12:49:51.177Z,16.03
2018-12-10T12:52:17.880Z,19.17
2018-12-10T12:54:44.631Z,14.77
2018-12-10T12:57:11.335Z,15.57
2018-12-10T12:59:38.051Z,16.47
2018-12-10T13:02:04.804Z,13.45
2018-12-10T13:04:33.046Z,23.00
2018-12-10T13:06:59.756Z,10.43
2018-12-10T13:09:26.511Z,10.40
2018-12-10T13:11:53.244Z,14.23
2018-12-10T13:14:20.078Z,11.07
2018-12-10T13:16:49.728Z,13.00
2018-12-10T13:19:15.580Z,12.73
2018-12-10T13:21:42.303Z,18.17
2018-12-10T13:24:09.072Z,15.10
2018-12-10T13:26:35.774Z,7.77
2018-12-10T13:29:02.548Z,9.37
2018-12-10T13:31:29.530Z,6.43
2018-12-10T13:33:56.264Z,17.03
2018-12-10T13:36:22.989Z,11.77
2018-12-10T13:38:49.739Z,8.43
2018-12-10T13:41:16.444Z,11.33
2018-12-10T13:43:43.163Z,10.43
2018-12-10T13:46:09.963Z,10.63
2018-12-10T13:48:36.686Z,15.10
2018-12-10T13:51:03.437Z,18.70
2018-12-10T13:53:30.196Z,16.42
2018-12-10T13:55:56.911Z,14.93
2018-12-10T13:58:23.614Z,15.90
2018-12-10T14:00:51.070Z,16.93
2018-12-10T14:03:18.319Z,15.83
2018-12-10T14:05:47.565Z,21.63
2018-12-10T14:08:13.833Z,16.83
2018-12-10T14:10:40.558Z,16.47
2018-12-10T14:13:07.332Z,21.27
2018-12-10T14:15:34.101Z,16.97
2018-12-10T14:18:00.818Z,16.10
2018-12-10T14:20:27.522Z,14.00
2018-12-10T14:22:54.423Z,15.35
2018-12-10T14:25:22.555Z,11.08
2018-12-10T14:27:49.285Z,15.03
2018-12-10T14:30:16.066Z,16.97
2018-12-10T14:32:42.770Z,15.40
2018-12-10T14:35:09.482Z,20.50
2018-12-10T14:37:36.248Z,22.83
2018-12-10T14:40:03.068Z,15.30
2018-12-10T14:42:29.793Z,16.43
2018-12-10T14:44:56.549Z,11.83
2018-12-10T14:47:23.251Z,15.30
2018-12-10T14:49:49.962Z,16.63
2018-12-10T14:52:16.728Z,26.87
2018-12-10T14:54:43.441Z,26.03
2018-12-10T14:57:10.396Z,20.00
2018-12-10T14:59:37.146Z,28.60
2018-12-10T15:02:03.861Z,19.83
2018-12-10T15:04:30.744Z,17.97
2018-12-10T15:06:57.509Z,25.70
2018-12-10T15:09:24.225Z,22.17
2018-12-10T15:11:50.988Z,27.33
2018-12-10T15:14:17.772Z,27.90
2018-12-10T15:16:44.580Z,25.97
2018-12-10T15:19:11.324Z,32.37
2018-12-10T15:21:38.116Z,37.40
2018-12-10T15:24:04.841Z,59.07
2018-12-10T15:26:31.576Z,52.20
2018-12-10T15:28:58.372Z,53.27
2018-12-10T15:31:25.087Z,51.07
2018-12-10T15:33:51.821Z,54.70
2018-12-10T15:36:18.578Z,53.37
2018-12-10T15:38:45.305Z,45.83
2018-12-10T15:41:12.025Z,42.23
2018-12-10T15:43:38.797Z,45.17
2018-12-10T15:46:05.525Z,42.30
2018-12-10T15:48:32.336Z,42.90
2018-12-10T15:50:59.088Z,46.03
2018-12-10T15:53:25.815Z,50.80
2018-12-10T15:55:52.574Z,44.20
2018-12-10T15:58:19.412Z,41.73
2018-12-10T16:00:46.153Z,44.63
2018-12-10T16:03:12.893Z,42.83
2018-12-10T16:05:39.662Z,47.83
2018-12-10T16:08:06.407Z,56.30
2018-12-10T16:10:33.128Z,59.20
2018-12-10T16:12:59.877Z,54.90
2018-12-10T16:15:26.585Z,45.77
2018-12-10T16:17:53.299Z,51.00
2018-12-10T16:20:20.086Z,69.77
2018-12-10T16:22:46.800Z,49.20
2018-12-10T16:25:13.518Z,53.57
2018-12-10T16:27:40.714Z,56.90
2018-12-10T16:30:07.662Z,56.10
2018-12-10T16:32:34.383Z,60.37
2018-12-10T16:35:01.143Z,70.77
2018-12-10T16:37:27.966Z,67.70
2018-12-10T16:39:54.686Z,75.73
2018-12-10T16:42:22.078Z,74.70
2018-12-10T16:44:48.792Z,79.70
2018-12-10T16:47:15.534Z,82.70
2018-12-10T16:49:42.304Z,87.23
2018-12-10T16:52:09.034Z,94.33
2018-12-10T16:54:35.750Z,91.20
2018-12-10T16:57:02.512Z,79.67
2018-12-10T16:59:29.221Z,78.33
2018-12-10T17:01:55.931Z,83.73
2018-12-10T17:04:22.733Z,68.50
2018-12-10T17:06:49.450Z,58.70
2018-12-10T17:09:16.183Z,60.13
2018-12-10T17:11:43.148Z,58.87
2018-12-10T17:14:09.945Z,50.90
2018-12-10T17:16:36.748Z,48.40
2018-12-10T17:19:03.526Z,47.03
2018-12-10T17:21:30.246Z,49.70
2018-12-10T17:23:57.067Z,42.13
2018-12-10T17:26:23.821Z,43.57
2018-12-10T17:28:50.549Z,39.93
2018-12-10T17:31:17.517Z,42.23
2018-12-10T17:33:49.425Z,36.87
2018-12-10T17:36:16.520Z,34.47
2018-12-10T17:38:43.899Z,35.00
2018-12-10T17:41:15.411Z,33.13
2018-12-10T17:43:42.209Z,42.00
2018-12-10T17:46:08.937Z,40.50
2018-12-10T17:48:35.715Z,39.00
2018-12-10T17:51:02.418Z,36.60
2018-12-10T17:53:29.159Z,34.40
2018-12-10T17:55:55.938Z,33.00
2018-12-10T17:58:22.671Z,34.87
2018-12-10T18:00:49.447Z,44.93
2018-12-10T18:03:16.231Z,40.80
2018-12-10T18:05:42.982Z,37.37
2018-12-10T18:08:09.706Z,49.40
2018-12-10T18:10:36.485Z,55.40
2018-12-10T18:13:03.183Z,63.17
2018-12-10T18:15:29.989Z,63.07
2018-12-10T18:17:56.761Z,62.50
2018-12-10T18:20:23.479Z,66.37
2018-12-10T18:22:50.196Z,68.47
2018-12-10T18:25:16.950Z,73.30
2018-12-10T18:27:43.673Z,81.53
2018-12-10T18:30:10.439Z,73.97
2018-12-10T18:32:37.214Z,70.33
2018-12-10T18:35:04.330Z,63.10
2018-12-10T18:37:31.045Z,62.13
2018-12-10T18:39:57.815Z,57.57
2018-12-10T18:42:24.656Z,55.40
2018-12-10T18:44:51.413Z,59.93
2018-12-10T18:47:18.270Z,57.67
2018-12-10T18:49:44.995Z,50.00
2018-12-10T18:52:11.716Z,52.37
2018-12-10T18:54:38.529Z,46.67
2018-12-10T18:57:05.347Z,43.77
2018-12-10T18:59:32.093Z,50.70
2018-12-10T19:01:58.908Z,54.53
2018-12-10T19:04:25.833Z,53.13
2018-12-10T19:06:52.547Z,46.60
2018-12-10T19:09:19.731Z,48.77
2018-12-10T19:11:46.492Z,49.97
2018-12-10T19:14:13.258Z,49.70
2018-12-10T19:16:40.051Z,48.60
2018-12-10T19:19:06.780Z,43.23
2018-12-10T19:21:33.787Z,50.67
2018-12-10T19:24:00.773Z,50.57
2018-12-10T19:26:27.492Z,55.33
2018-12-10T19:28:54.217Z,58.10
2018-12-10T19:31:20.972Z,58.07
2018-12-10T19:33:47.712Z,60.93
2018-12-10T19:36:14.466Z,56.20
2018-12-10T19:38:41.335Z,52.60
2018-12-10T19:41:08.268Z,61.37
2018-12-10T19:43:34.987Z,59.87
2018-12-10T19:46:01.777Z,53.17
2018-12-10T19:48:28.498Z,55.83
2018-12-10T19:50:55.224Z,53.77
2018-12-10T19:53:22.098Z,48.30
2018-12-10T19:55:48.928Z,52.37
2018-12-10T19:58:15.758Z,43.47
2018-12-10T20:00:42.717Z,47.50
2018-12-10T20:03:09.428Z,48.20
2018-12-10T20:05:41.919Z,46.97
2018-12-10T20:08:08.943Z,43.67
2018-12-10T20:10:35.754Z,47.73
2018-12-10T20:13:02.466Z,43.30
2018-12-10T20:15:29.252Z,43.97
2018-12-10T20:17:56.143Z,42.50
2018-12-10T20:20:22.988Z,43.10
2018-12-10T20:22:49.765Z,50.03
2018-12-10T20:25:16.480Z,41.97
2018-12-10T20:27:43.862Z,50.60
2018-12-10T20:30:11.003Z,50.50
2018-12-10T20:32:37.732Z,48.73
2018-12-10T20:35:04.864Z,61.47
2018-12-10T20:37:31.663Z,62.60
2018-12-10T20:39:58.386Z,63.73
2018-12-10T20:42:25.192Z,61.67
2018-12-10T20:44:52.011Z,62.20
2018-12-10T20:47:18.728Z,60.17
2018-12-10T20:49:45.452Z,66.63
2018-12-10T20:52:12.250Z,52.80
2018-12-10T20:54:38.973Z,56.00
2018-12-10T20:57:05.728Z,52.33
2018-12-10T20:59:32.527Z,58.37
2018-12-10T21:01:59.271Z,65.43
2018-12-10T21:04:25.991Z,63.60
2018-12-10T21:06:52.750Z,59.80
2018-12-10T21:09:19.496Z,58.57
2018-12-10T21:11:46.211Z,42.93
2018-12-10T21:14:12.976Z,41.70
2018-12-10T21:16:39.687Z,47.50
2018-12-10T21:19:06.522Z,50.27
2018-12-10T21:21:33.300Z,43.67
2018-12-10T21:24:00.070Z,47.30
2018-12-10T21:26:27.026Z,47.10
2018-12-10T21:28:54.486Z,37.70
2018-12-10T21:31:30.074Z,36.53
2018-12-10T21:33:57.105Z,45.03
2018-12-10T21:36:23.922Z,38.23
2018-12-10T21:38:50.743Z,39.33
2018-12-10T21:41:17.508Z,36.07
2018-12-10T21:43:44.277Z,37.30
2018-12-10T21:46:11.011Z,41.47
2018-12-10T21:48:39.517Z,43.27
2018-12-10T21:51:06.240Z,47.73
2018-12-10T21:53:32.973Z,46.57
2018-12-10T21:55:59.739Z,41.83
2018-12-10T21:58:26.544Z,54.97
2018-12-10T22:00:53.246Z,48.70
2018-12-10T22:03:20.097Z,37.60
2018-12-10T22:05:46.849Z,41.23
2018-12-10T22:08:13.573Z,36.73
2018-12-10T22:10:40.384Z,41.53
2018-12-10T22:13:07.110Z,40.83
2018-12-10T22:15:33.821Z,41.17
2018-12-10T22:18:00.603Z,36.57
2018-12-10T22:20:27.306Z,32.63
2018-12-10T22:22:54.008Z,26.10
2018-12-10T22:25:20.759Z,30.90
2018-12-10T22:27:47.469Z,27.20
2018-12-10T22:30:14.242Z,34.00
2018-12-10T22:32:41.130Z,35.43
2018-12-10T22:35:07.839Z,35.03
2018-12-10T22:37:34.575Z,29.77
2018-12-10T22:40:01.338Z,29.43
2018-12-10T22:42:28.076Z,28.60
2018-12-10T22:44:54.787Z,29.37
2018-12-10T22:47:21.819Z,34.47
2018-12-10T22:49:48.530Z,36.57
2018-12-10T22:52:15.240Z,39.20
2018-12-10T22:54:41.992Z,44.33
2018-12-10T22:57:09.551Z,45.10
2018-12-10T22:59:36.273Z,42.13
2018-12-10T23:02:03.139Z,44.50
2018-12-10T23:04:30.074Z,43.63
2018-12-10T23:06:57.123Z,35.87
